createdAt,value
2018-06-22T00:04:30.008Z,0
2018-06-22T00:09:30.456Z,0
2018-06-22T00:14:30.119Z,0
2018-06-22T00:19:30.182Z,0
2018-06-22T00:24:30.267Z,0
2018-06-22T00:29:30.409Z,0
2018-06-22T00:34:29.742Z,0
2018-06-22T00:39:30.098Z,0
2018-06-22T00:44:30.273Z,0
2018-06-22T00:49:29.865Z,0
2018-06-22T00:54:29.917Z,0
2018-06-22T00:59:29.784Z,0
2018-06-22T01:04:29.894Z,0
2018-06-22T01:09:30.151Z,0
2018-06-22T01:14:29.818Z,0
2018-06-22T01:19:29.790Z,0
2018-06-22T01:24:30.389Z,0
2018-06-22T01:29:29.991Z,0
2018-06-22T01:34:29.658Z,0
2018-06-22T01:39:29.796Z,0
2018-06-22T01:44:29.924Z,0
2018-06-22T01:49:30.137Z,0
2018-06-22T01:54:30.291Z,0
2018-06-22T01:59:29.753Z,0
2018-06-22T02:04:30.209Z,0
2018-06-22T02:09:30.316Z,0
2018-06-22T02:14:30.591Z,0
2018-06-22T02:19:29.733Z,0
2018-06-22T02:24:30.038Z,0
2018-06-22T02:29:30.185Z,0
2018-06-22T02:34:29.842Z,0
2018-06-22T02:39:29.864Z,0
2018-06-22T02:44:30.055Z,0
2018-06-22T02:49:30.328Z,0
2018-06-22T02:54:30.431Z,0
2018-06-22T02:59:30.645Z,0
2018-06-22T03:04:30.227Z,0
2018-06-22T03:09:29.833Z,0
2018-06-22T03:14:30.034Z,0
2018-06-22T03:19:30.180Z,0
2018-06-22T03:24:30.393Z,0
2018-06-22T03:29:30.701Z,0
2018-06-22T03:34:29.886Z,9
2018-06-22T03:39:30.087Z,9
2018-06-22T03:44:30.374Z,18
2018-06-22T03:49:30.605Z,18
2018-06-22T03:54:29.835Z,21
2018-06-22T03:59:30.058Z,21
2018-06-22T04:04:30.604Z,21
2018-06-22T04:09:30.621Z,21
2018-06-22T04:14:29.930Z,32.3
2018-06-22T04:19:30.290Z,32.3
2018-06-22T04:24:30.427Z,53.8
2018-06-22T04:29:30.825Z,53.8
2018-06-22T04:34:30.636Z,71.3
2018-06-22T04:39:29.980Z,71.3
2018-06-22T04:44:30.372Z,83.8
2018-06-22T04:49:30.736Z,83.8
2018-06-22T04:54:30.014Z,88.8
2018-06-22T04:59:30.280Z,88.8
2018-06-22T05:04:30.497Z,120
2018-06-22T05:09:30.357Z,120
2018-06-22T05:14:30.449Z,166
2018-06-22T05:19:30.649Z,166
2018-06-22T05:24:29.866Z,104.7
2018-06-22T05:29:30.079Z,104.7
2018-06-22T05:34:30.322Z,102.8
2018-06-22T05:39:30.529Z,102.8
2018-06-22T05:44:29.829Z,138
2018-06-22T05:49:30.164Z,138
2018-06-22T05:54:30.388Z,176.3
2018-06-22T05:59:30.579Z,176.3
2018-06-22T06:04:30.515Z,142
2018-06-22T06:09:30.707Z,142
2018-06-22T06:14:29.824Z,169
2018-06-22T06:19:30.835Z,169
2018-06-22T06:24:30.083Z,157.5
2018-06-22T06:29:30.250Z,157.5
2018-06-22T06:34:30.593Z,199
2018-06-22T06:39:30.741Z,199
2018-06-22T06:44:30.035Z,210
2018-06-22T06:49:30.178Z,210
2018-06-22T06:54:30.313Z,126.3
2018-06-22T06:59:30.484Z,126.3
2018-06-22T07:04:30.843Z,77
2018-06-22T07:09:30.968Z,77
2018-06-22T07:14:30.012Z,189
2018-06-22T07:19:30.291Z,189
2018-06-22T07:24:30.510Z,214.8
2018-06-22T07:29:30.743Z,214.8
2018-06-22T07:34:30.044Z,259.5
2018-06-22T07:39:30.150Z,259.5
2018-06-22T07:44:30.459Z,329
2018-06-22T07:49:30.811Z,329
2018-06-22T07:54:30.973Z,344.7
2018-06-22T07:59:30.144Z,344.7
2018-06-22T08:04:30.268Z,336
2018-06-22T08:09:29.994Z,336
2018-06-22T08:14:30.154Z,285.7
2018-06-22T08:19:31.708Z,285.7
2018-06-22T08:24:30.746Z,716.7
2018-06-22T08:29:30.907Z,716.7
2018-06-22T08:34:30.579Z,360.7
2018-06-22T08:39:30.690Z,360.7
2018-06-22T08:44:30.879Z,885
2018-06-22T08:49:30.079Z,885
2018-06-22T08:54:30.159Z,259.3
2018-06-22T08:59:30.284Z,259.3
2018-06-22T09:04:30.447Z,799.8
2018-06-22T09:09:30.541Z,799.8
2018-06-22T09:14:30.636Z,603.3
2018-06-22T09:19:30.952Z,603.3
2018-06-22T09:24:31.033Z,212.5
2018-06-22T09:29:30.313Z,212.5
2018-06-22T09:34:30.674Z,779.2
2018-06-22T09:39:30.924Z,779.2
2018-06-22T09:44:31.090Z,806.7
2018-06-22T09:49:30.272Z,806.7
2018-06-22T09:54:30.309Z,828
2018-06-22T09:59:30.558Z,828
2018-06-22T10:04:30.870Z,178.5
2018-06-22T10:09:30.624Z,178.5
2018-06-22T10:14:30.783Z,934.3
2018-06-22T10:19:30.999Z,934.3
2018-06-22T10:24:31.075Z,267
2018-06-22T10:29:30.279Z,267
2018-06-22T10:34:30.473Z,680.3
2018-06-22T10:39:30.688Z,680.3
2018-06-22T10:44:30.874Z,897.8
2018-06-22T10:49:31.131Z,897.8
2018-06-22T10:54:30.261Z,237
2018-06-22T10:59:30.561Z,237
2018-06-22T11:04:30.756Z,1034
2018-06-22T11:09:31.162Z,1034
2018-06-22T11:14:30.348Z,503.7
2018-06-22T11:19:30.635Z,503.7
2018-06-22T11:24:30.866Z,517
2018-06-22T11:29:31.217Z,517
2018-06-22T11:34:30.413Z,965.7
2018-06-22T11:39:30.618Z,965.7
2018-06-22T11:44:30.689Z,890.8
2018-06-22T11:49:31.038Z,890.8
2018-06-22T11:54:31.231Z,905
2018-06-22T11:59:30.723Z,905
2018-06-22T12:04:31.292Z,255.7
2018-06-22T12:09:30.451Z,255.7
2018-06-22T12:14:31.047Z,284.5
2018-06-22T12:19:31.250Z,284.5
2018-06-22T12:24:30.380Z,664
2018-06-22T12:29:30.490Z,664
2018-06-22T12:34:30.639Z,380.7
2018-06-22T12:39:30.848Z,380.7
2018-06-22T12:44:31.004Z,262.3
2018-06-22T12:49:31.249Z,262.3
2018-06-22T12:54:30.296Z,248
2018-06-22T12:59:30.455Z,248
2018-06-22T13:04:30.684Z,138.7
2018-06-22T13:09:31.341Z,138.7
2018-06-22T13:14:30.570Z,189
2018-06-22T13:19:30.730Z,189
2018-06-22T13:24:30.966Z,141.2
2018-06-22T13:29:31.120Z,141.2
2018-06-22T13:34:31.335Z,131.2
2018-06-22T13:39:30.517Z,131.2
2018-06-22T13:44:30.589Z,210.3
2018-06-22T13:49:30.872Z,210.3
2018-06-22T13:54:30.946Z,258
2018-06-22T13:59:31.171Z,258
2018-06-22T14:04:31.000Z,230.7
2018-06-22T14:09:31.099Z,230.7
2018-06-22T14:14:31.287Z,253.2
2018-06-22T14:19:30.622Z,253.2
2018-06-22T14:24:30.691Z,267.8
2018-06-22T14:29:30.932Z,267.8
2018-06-22T14:34:31.245Z,197.3
2018-06-22T14:39:30.520Z,197.3
2018-06-22T14:44:30.651Z,179.2
2018-06-22T14:49:30.865Z,179.2
2018-06-22T14:54:31.014Z,148
2018-06-22T14:59:31.159Z,148
2018-06-22T15:04:31.399Z,213
2018-06-22T15:09:30.478Z,213
2018-06-22T15:14:30.660Z,190
2018-06-22T15:19:30.815Z,190
2018-06-22T15:24:30.972Z,334
2018-06-22T15:29:31.049Z,334
2018-06-22T15:34:31.170Z,115.2
2018-06-22T15:39:31.311Z,115.2
2018-06-22T15:44:31.082Z,112.3
2018-06-22T15:49:31.454Z,112.3
2018-06-22T15:54:30.688Z,106.2
2018-06-22T15:59:30.931Z,106.2
2018-06-22T16:04:31.082Z,53.2
2018-06-22T16:09:31.216Z,53.2
2018-06-22T16:14:31.329Z,23.8
2018-06-22T16:19:30.848Z,23.8
2018-06-22T16:24:30.944Z,95.5
2018-06-22T16:29:31.271Z,95.5
2018-06-22T16:34:31.452Z,151
2018-06-22T16:39:30.744Z,151
2018-06-22T16:44:30.812Z,126
2018-06-22T16:49:30.993Z,126
2018-06-22T16:54:31.154Z,107.8
2018-06-22T16:59:31.300Z,107.8
2018-06-22T17:04:30.596Z,65.5
2018-06-22T17:09:30.678Z,65.5
2018-06-22T17:14:30.650Z,97.7
2018-06-22T17:19:30.860Z,97.7
2018-06-22T17:24:31.031Z,74.8
2018-06-22T17:29:31.146Z,74.8
2018-06-22T17:34:31.338Z,36.5
2018-06-22T17:39:30.681Z,36.5
2018-06-22T17:44:30.812Z,39
2018-06-22T17:49:31.193Z,39
2018-06-22T17:54:31.353Z,56
2018-06-22T17:59:31.484Z,56
2018-06-22T18:04:30.692Z,54.7
2018-06-22T18:09:30.849Z,54.7
2018-06-22T18:14:30.740Z,37.8
2018-06-22T18:19:30.928Z,37.8
2018-06-22T18:24:31.027Z,34
2018-06-22T18:29:31.129Z,34
2018-06-22T18:34:31.321Z,24.8
2018-06-22T18:39:31.409Z,24.8
2018-06-22T18:44:31.557Z,28
2018-06-22T18:49:30.816Z,28
2018-06-22T18:54:30.834Z,24
2018-06-22T18:59:31.006Z,24
2018-06-22T19:04:31.209Z,16.7
2018-06-22T19:09:31.226Z,16.7
2018-06-22T19:14:31.432Z,1.7
2018-06-22T19:19:31.628Z,1.7
2018-06-22T19:24:30.707Z,3.3
2018-06-22T19:29:30.882Z,3.3
2018-06-22T19:34:31.194Z,0
2018-06-22T19:39:31.320Z,0
2018-06-22T19:44:31.416Z,0
2018-06-22T19:49:31.646Z,0
2018-06-22T19:54:30.781Z,0
2018-06-22T19:59:30.893Z,0
2018-06-22T20:04:31.512Z,0
2018-06-22T20:09:30.933Z,0
2018-06-22T20:14:30.867Z,0
2018-06-22T20:19:31.201Z,0
2018-06-22T20:24:31.353Z,0
2018-06-22T20:29:31.437Z,0
2018-06-22T20:34:31.688Z,0
2018-06-22T20:39:31.727Z,0
2018-06-22T20:44:30.903Z,0
2018-06-22T20:49:31.161Z,0
2018-06-22T20:54:31.287Z,0
2018-06-22T20:59:31.339Z,0
2018-06-22T21:04:31.781Z,0
2018-06-22T21:09:30.917Z,0
2018-06-22T21:14:31.072Z,0
2018-06-22T21:19:31.233Z,0
2018-06-22T21:24:31.482Z,0
2018-06-22T21:29:31.827Z,0
2018-06-22T21:34:31.013Z,0
2018-06-22T21:39:31.120Z,0
2018-06-22T21:44:31.226Z,0
2018-06-22T21:49:31.603Z,0
2018-06-22T21:54:31.703Z,0
2018-06-22T21:59:31.868Z,0
2018-06-22T22:04:31.191Z,0
2018-06-22T22:09:31.720Z,0
2018-06-22T22:14:31.905Z,0
2018-06-22T22:19:31.184Z,0
2018-06-22T22:24:31.402Z,0
2018-06-22T22:29:31.641Z,0
2018-06-22T22:34:31.898Z,0
2018-06-22T22:39:31.018Z,0
2018-06-22T22:44:31.291Z,0
2018-06-22T22:49:31.457Z,0
2018-06-22T22:54:31.524Z,0
2018-06-22T22:59:31.688Z,0
2018-06-22T23:04:31.171Z,0
2018-06-22T23:09:31.296Z,0
2018-06-22T23:14:31.416Z,0
2018-06-22T23:19:31.574Z,0
2018-06-22T23:24:31.705Z,0
2018-06-22T23:29:31.790Z,0
2018-06-22T23:34:31.857Z,0
2018-06-22T23:39:32.006Z,0
2018-06-22T23:44:31.220Z,0
2018-06-22T23:49:31.395Z,0
2018-06-22T23:54:31.469Z,0
2018-06-22T23:59:31.668Z,0
